createdAt,value
2023-03-20T00:01:06.210Z,9.8125
2023-03-20T00:06:07.208Z,9.8125
2023-03-20T00:11:08.137Z,9.625
2023-03-20T00:16:09.219Z,9.5625
2023-03-20T00:21:10.184Z,9.5
2023-03-20T00:26:11.021Z,9.25
2023-03-20T00:31:12.027Z,9.1875
2023-03-20T00:36:13.040Z,9.125
2023-03-20T00:41:13.814Z,9.125
2023-03-20T00:46:14.998Z,9
2023-03-20T00:51:17.241Z,8.875
2023-03-20T00:56:18.224Z,8.8125
2023-03-20T01:01:19.455Z,8.6875
2023-03-20T01:06:20.261Z,8.5625
2023-03-20T01:11:20.924Z,8.3125
2023-03-20T01:16:21.930Z,8.25
2023-03-20T01:21:22.904Z,8.5
2023-03-20T01:26:23.786Z,8.5625
2023-03-20T01:31:24.718Z,8.375
2023-03-20T01:36:25.632Z,8.5
2023-03-20T01:41:26.432Z,8.625
2023-03-20T01:46:27.489Z,8.6875
2023-03-20T01:51:28.496Z,8.6875
2023-03-20T01:56:29.848Z,8.75
2023-03-20T02:01:30.779Z,8.6875
2023-03-20T02:06:31.816Z,8.6875
2023-03-20T02:11:32.804Z,8.8125
2023-03-20T02:16:33.868Z,8.75
2023-03-20T02:21:34.967Z,8.75
2023-03-20T02:26:35.902Z,8.75
2023-03-20T02:31:36.867Z,8.75
2023-03-20T02:36:37.788Z,8.8125
2023-03-20T02:41:38.915Z,8.75
2023-03-20T02:46:39.704Z,8.6875
2023-03-20T02:51:40.689Z,8.9375
2023-03-20T02:56:41.631Z,8.8125
2023-03-20T03:01:42.644Z,8.875
2023-03-20T03:06:43.652Z,9
2023-03-20T03:11:44.408Z,9
2023-03-20T03:16:45.311Z,9.0625
2023-03-20T03:21:46.389Z,8.5625
2023-03-20T03:26:47.261Z,8.9375
2023-03-20T03:31:48.122Z,8.8125
2023-03-20T03:36:49.271Z,8.75
2023-03-20T03:41:50.065Z,8.75
2023-03-20T03:46:51.090Z,8.75
2023-03-20T03:51:51.835Z,8.625
2023-03-20T03:56:53.321Z,8.75
2023-03-20T04:01:53.741Z,8.75
2023-03-20T04:06:54.738Z,8.8125
2023-03-20T04:11:55.603Z,8.8125
2023-03-20T04:16:56.400Z,8.8125
2023-03-20T04:21:57.655Z,8.8125
2023-03-20T04:26:58.489Z,8.9375
2023-03-20T04:31:59.707Z,8.875
2023-03-20T04:37:00.787Z,8.875
2023-03-20T04:42:03.935Z,8.9375
2023-03-20T04:47:04.970Z,8.9375
2023-03-20T04:52:05.860Z,9
2023-03-20T04:57:06.907Z,9
2023-03-20T05:02:08.026Z,9
2023-03-20T05:07:09.037Z,8.875
2023-03-20T05:12:09.969Z,8.875
2023-03-20T05:17:10.868Z,8.875
2023-03-20T05:22:11.874Z,8.3125
2023-03-20T05:27:13.016Z,8.875
2023-03-20T05:32:14.131Z,8.875
2023-03-20T05:37:15.099Z,9.0625
2023-03-20T05:42:15.989Z,9.0625
2023-03-20T05:47:16.962Z,9.0625
2023-03-20T05:52:18.049Z,9.1875
2023-03-20T05:57:19.252Z,9.3125
2023-03-20T06:02:20.354Z,9
2023-03-20T06:07:21.309Z,9.4375
2023-03-20T06:12:22.234Z,9.5
2023-03-20T06:17:23.374Z,9.5
2023-03-20T06:22:24.354Z,9.4375
2023-03-20T06:27:25.238Z,9.4375
2023-03-20T06:32:26.141Z,9.375
2023-03-20T06:37:27.114Z,9.25
2023-03-20T06:42:27.977Z,9.125
2023-03-20T06:47:28.864Z,9.125
2023-03-20T06:52:29.920Z,9.125
2023-03-20T06:57:31.091Z,9.25
2023-03-20T07:02:32.291Z,9.1875
2023-03-20T07:07:33.338Z,9.1875
2023-03-20T07:12:34.216Z,9.1875
2023-03-20T07:17:35.063Z,9.125
2023-03-20T07:22:35.860Z,9.0625
2023-03-20T07:27:36.538Z,9
2023-03-20T07:32:37.984Z,8.9375
2023-03-20T07:37:39.023Z,9.1875
2023-03-20T07:42:39.556Z,9.125
2023-03-20T07:47:40.561Z,9.4375
2023-03-20T07:52:41.478Z,9.875
2023-03-20T07:57:42.914Z,9.875
2023-03-20T08:02:43.491Z,9.8125
2023-03-20T08:07:44.190Z,9.8125
2023-03-20T08:12:45.176Z,10.125
2023-03-20T08:17:46.170Z,10
2023-03-20T08:22:47.286Z,9.875
2023-03-20T08:27:48.414Z,10.25
2023-03-20T08:32:49.662Z,10.375
2023-03-20T08:37:50.809Z,11.1875
2023-03-20T08:42:51.837Z,11.75
2023-03-20T08:47:53.038Z,12.1875
2023-03-20T08:52:54.094Z,12.0625
2023-03-20T08:57:55.817Z,11.5625
2023-03-20T09:02:56.571Z,12.5
2023-03-20T09:07:57.453Z,12.625
2023-03-20T09:12:58.600Z,12.75
2023-03-20T09:23:30.381Z,12.75
2023-03-20T09:28:31.133Z,13.125
2023-03-20T09:33:32.096Z,13.0625
2023-03-20T09:38:33.075Z,13.3125
2023-03-20T09:43:34.049Z,13.625
2023-03-20T09:48:35.001Z,13.625
2023-03-20T09:53:36.168Z,12.9375
2023-03-20T09:58:37.043Z,12.6875
2023-03-20T10:03:38.020Z,12.3125
2023-03-20T10:08:38.987Z,12.25
2023-03-20T10:13:39.910Z,12.1875
2023-03-20T10:18:40.799Z,12.3125
2023-03-20T10:23:41.919Z,12.375
2023-03-20T10:28:42.801Z,12.5625
2023-03-20T10:33:43.551Z,12.5625
2023-03-20T10:38:44.535Z,12.4375
2023-03-20T10:43:45.423Z,12.25
2023-03-20T10:48:48.619Z,12.0625
2023-03-20T10:53:49.639Z,12
2023-03-20T10:58:50.681Z,12.0625
2023-03-20T11:03:53.932Z,12.125
2023-03-20T11:08:55.119Z,12.75
2023-03-20T11:13:55.988Z,12.9375
2023-03-20T11:18:57.029Z,12.8125
2023-03-20T11:23:58.006Z,13.1875
2023-03-20T11:28:58.847Z,13.0625
2023-03-20T11:33:59.875Z,13
2023-03-20T11:39:00.905Z,13.3125
2023-03-20T11:55:03.387Z,12.625
2023-03-20T12:22:05.951Z,12.4375
2023-03-20T12:38:08.636Z,12.8125
2023-03-20T12:54:10.500Z,11.5625
2023-03-20T12:59:11.206Z,12.1875
2023-03-20T13:04:12.259Z,12.0625
2023-03-20T13:09:13.331Z,12.125
2023-03-20T13:14:14.249Z,12.1875
2023-03-20T13:19:15.266Z,12.375
2023-03-20T13:24:16.745Z,12.6875
2023-03-20T13:34:48.266Z,12.4375
2023-03-20T13:39:48.802Z,12.8125
2023-03-20T14:01:21.194Z,12.75
2023-03-20T14:06:21.735Z,12.625
2023-03-20T14:16:53.419Z,12.25
2023-03-20T14:32:56.334Z,11.8125
2023-03-20T14:37:56.889Z,11.625
2023-03-20T14:42:57.793Z,11.5625
2023-03-20T14:47:58.700Z,11.75
2023-03-20T14:52:59.385Z,11.6875
2023-03-20T14:58:00.234Z,11.5625
2023-03-20T15:03:01.262Z,11.5
2023-03-20T15:08:02.015Z,11.5625
2023-03-20T15:13:03.022Z,11.5625
2023-03-20T15:18:03.910Z,11.8125
2023-03-20T15:23:04.837Z,11.8125
2023-03-20T15:28:05.585Z,11.6875
2023-03-20T15:33:06.644Z,11.625
2023-03-20T15:38:07.427Z,11.625
2023-03-20T15:43:08.643Z,11.5
2023-03-20T15:48:09.707Z,11.5625
2023-03-20T15:53:10.659Z,11.5625
2023-03-20T15:58:11.781Z,11.5
2023-03-20T16:03:12.707Z,11.4375
2023-03-20T16:08:13.631Z,11.4375
2023-03-20T16:13:14.411Z,11.3125
2023-03-20T16:18:15.499Z,11.1875
2023-03-20T16:23:16.317Z,11.125
2023-03-20T16:28:17.232Z,11.125
2023-03-20T16:33:18.387Z,10.9375
2023-03-20T16:38:19.247Z,11
2023-03-20T16:43:20.092Z,10.875
2023-03-20T16:48:21.245Z,10.8125
2023-03-20T16:53:22.704Z,10.6875
2023-03-20T16:58:23.819Z,10.625
2023-03-20T17:03:24.869Z,10.5
2023-03-20T17:08:25.966Z,10.3125
2023-03-20T17:13:26.733Z,10.125
2023-03-20T17:18:27.795Z,10.125
2023-03-20T17:23:28.826Z,10.0625
2023-03-20T17:28:30.006Z,10.0625
2023-03-20T17:33:31.040Z,10
2023-03-20T17:38:31.821Z,10
2023-03-20T17:43:32.704Z,9.9375
2023-03-20T17:48:33.627Z,9.875
2023-03-20T17:53:36.454Z,9.9375
2023-03-20T17:58:35.643Z,9.8125
2023-03-20T18:03:36.573Z,9.8125
2023-03-20T18:08:37.519Z,9.875
2023-03-20T18:13:38.353Z,9.375
2023-03-20T18:18:39.244Z,9.8125
2023-03-20T18:23:40.230Z,9.8125
2023-03-20T18:28:41.281Z,9.625
2023-03-20T18:33:42.407Z,9.75
2023-03-20T18:38:43.387Z,9.6875
2023-03-20T18:43:44.621Z,9.6875
2023-03-20T18:48:45.503Z,9.625
2023-03-20T18:53:46.473Z,9.5625
2023-03-20T18:58:47.331Z,9.5625
2023-03-20T19:03:48.625Z,9.5625
2023-03-20T19:08:49.535Z,9.5625
2023-03-20T19:13:50.528Z,9.5
2023-03-20T19:18:51.698Z,9.4375
2023-03-20T19:23:52.733Z,9.5
2023-03-20T19:28:54.064Z,9.5
2023-03-20T19:33:54.944Z,9.4375
2023-03-20T19:38:55.806Z,9.4375
2023-03-20T19:43:57.043Z,9.375
2023-03-20T19:48:58.033Z,9
2023-03-20T19:53:59.099Z,9.0625
2023-03-20T19:59:00.311Z,9
2023-03-20T20:04:01.383Z,9
2023-03-20T20:09:02.227Z,9
2023-03-20T20:14:07.455Z,9
2023-03-20T20:19:04.371Z,8.8125
2023-03-20T20:24:05.374Z,9.1875
2023-03-20T20:29:06.192Z,9.1875
2023-03-20T20:35:06.659Z,9.125
2023-03-20T20:39:08.301Z,9.25
2023-03-20T20:44:15.940Z,9.25
2023-03-20T20:49:18.978Z,9.25
2023-03-20T20:54:10.994Z,9.1875
2023-03-20T20:59:12.087Z,9
2023-03-20T21:04:12.915Z,9.125
2023-03-20T21:09:13.834Z,9
2023-03-20T21:14:14.793Z,8.9375
2023-03-20T21:19:16.047Z,8.9375
2023-03-20T21:24:31.326Z,8.875
2023-03-20T21:29:17.878Z,8.8125
2023-03-20T21:34:18.937Z,8.75
2023-03-20T21:39:19.816Z,8.75
2023-03-20T21:44:54.184Z,8.875
2023-03-20T21:50:17.347Z,8.875
2023-03-20T21:55:03.878Z,8.875
2023-03-20T21:59:57.639Z,8.8125
2023-03-20T22:15:16.294Z,8.875
2023-03-20T22:30:05.044Z,8.8125
2023-03-20T22:35:15.474Z,8.8125
2023-03-20T22:45:03.608Z,8.75
2023-03-20T22:49:32.786Z,8.75
2023-03-20T22:54:33.602Z,8.75
2023-03-20T22:59:34.560Z,8.6875
2023-03-20T23:04:35.431Z,8.6875
2023-03-20T23:09:36.382Z,8.625
2023-03-20T23:14:45.669Z,8.625
2023-03-20T23:19:47.656Z,8.625
2023-03-20T23:24:39.251Z,8.6875
2023-03-20T23:29:40.115Z,8.625
2023-03-20T23:34:41.161Z,8.625
2023-03-20T23:39:42.072Z,8.5625
2023-03-20T23:44:49.850Z,8.625
2023-03-20T23:49:44.010Z,8.625
2023-03-20T23:54:44.768Z,8.625
2023-03-20T23:59:45.693Z,8.5625
